createdAt,value
2023-04-07T00:01:04.025Z,63.84
2023-04-07T00:03:31.731Z,62.62
2023-04-07T00:05:59.313Z,63.54
2023-04-07T00:08:27.250Z,62.16
2023-04-07T00:10:56.244Z,61.26
2023-04-07T00:13:23.829Z,62.15
2023-04-07T00:15:51.612Z,62.48
2023-04-07T00:18:19.226Z,62.13
2023-04-07T00:20:46.690Z,62.13
2023-04-07T00:23:14.238Z,63.36
2023-04-07T00:25:41.815Z,64.29
2023-04-07T00:28:10.649Z,62.17
2023-04-07T00:30:38.468Z,62.17
2023-04-07T00:33:05.984Z,61.48
2023-04-07T00:35:37.442Z,60.78
2023-04-07T00:38:05.014Z,61.25
2023-04-07T00:40:32.517Z,60.51
2023-04-07T00:43:00.195Z,60.41
2023-04-07T00:45:29.028Z,60.29
2023-04-07T00:47:57.828Z,59.80
2023-04-07T00:50:25.487Z,60.22
2023-04-07T00:52:53.222Z,60.09
2023-04-07T00:55:21.060Z,60.68
2023-04-07T00:57:48.554Z,60.91
2023-04-07T01:00:17.808Z,60.51
2023-04-07T01:02:54.134Z,60.60
2023-04-07T01:05:25.068Z,61.56
2023-04-07T01:07:58.660Z,61.33
2023-04-07T01:10:29.548Z,61.44
2023-04-07T01:13:03.686Z,60.98
2023-04-07T01:15:32.041Z,60.62
2023-04-07T01:18:08.631Z,61.82
2023-04-07T01:20:37.603Z,62.00
2023-04-07T01:23:07.900Z,61.31
2023-04-07T01:25:56.072Z,60.92
2023-04-07T01:28:41.203Z,60.59
2023-04-07T01:31:10.616Z,61.11
2023-04-07T01:33:38.709Z,60.78
2023-04-07T01:36:08.135Z,60.52
2023-04-07T01:38:36.003Z,61.10
2023-04-07T01:41:04.349Z,60.91
2023-04-07T01:43:32.374Z,60.63
2023-04-07T01:46:00.632Z,59.62
2023-04-07T01:48:29.657Z,59.61
2023-04-07T01:50:57.388Z,60.48
2023-04-07T01:53:25.255Z,59.73
2023-04-07T01:55:53.669Z,59.97
2023-04-07T01:58:21.311Z,60.21
2023-04-07T02:00:50.790Z,59.88
2023-04-07T02:03:21.760Z,60.46
2023-04-07T02:05:53.600Z,59.81
2023-04-07T02:08:22.684Z,60.87
2023-04-07T02:10:50.630Z,59.59
2023-04-07T02:13:21.293Z,60.10
2023-04-07T02:15:49.598Z,61.17
2023-04-07T02:18:18.648Z,60.02
2023-04-07T02:20:47.538Z,60.50
2023-04-07T02:23:16.430Z,60.58
2023-04-07T02:25:43.953Z,60.57
2023-04-07T02:28:11.450Z,61.20
2023-04-07T02:30:39.019Z,60.13
2023-04-07T02:33:06.622Z,60.23
2023-04-07T02:35:34.096Z,60.26
2023-04-07T02:38:01.604Z,60.00
2023-04-07T02:40:30.911Z,60.34
2023-04-07T02:42:58.408Z,60.51
2023-04-07T02:45:26.432Z,60.54
2023-04-07T02:47:54.115Z,61.34
2023-04-07T02:50:21.655Z,62.30
2023-04-07T02:52:49.171Z,61.09
2023-04-07T02:55:18.367Z,62.11
2023-04-07T02:57:47.253Z,61.43
2023-04-07T03:00:17.402Z,60.90
2023-04-07T03:02:45.082Z,61.14
2023-04-07T03:05:12.881Z,60.92
2023-04-07T03:07:40.416Z,61.73
2023-04-07T03:10:08.565Z,61.24
2023-04-07T03:12:36.059Z,61.90
2023-04-07T03:15:05.257Z,61.44
2023-04-07T03:17:32.760Z,62.00
2023-04-07T03:20:00.254Z,61.46
2023-04-07T03:22:27.786Z,61.31
2023-04-07T03:24:55.395Z,62.20
2023-04-07T03:27:22.966Z,61.84
2023-04-07T03:29:51.227Z,61.43
2023-04-07T03:32:20.047Z,61.03
2023-04-07T03:34:47.531Z,61.81
2023-04-07T03:37:15.074Z,62.49
2023-04-07T03:39:42.976Z,61.80
2023-04-07T03:42:10.697Z,62.59
2023-04-07T03:44:38.162Z,63.30
2023-04-07T03:47:06.152Z,62.26
2023-04-07T03:49:34.984Z,62.63
2023-04-07T03:52:02.884Z,62.54
2023-04-07T03:54:30.436Z,63.42
2023-04-07T03:56:58.317Z,62.07
2023-04-07T03:59:25.924Z,62.08
2023-04-07T04:01:53.579Z,62.57
2023-04-07T04:04:21.289Z,62.12
2023-04-07T04:06:50.691Z,61.88
2023-04-07T04:09:18.388Z,61.65
2023-04-07T04:11:46.260Z,61.96
2023-04-07T04:14:13.752Z,62.73
2023-04-07T04:16:41.250Z,61.99
2023-04-07T04:19:08.739Z,61.98
2023-04-07T04:21:36.282Z,61.47
2023-04-07T04:24:05.536Z,62.05
2023-04-07T04:26:33.031Z,61.96
2023-04-07T04:29:00.540Z,62.18
2023-04-07T04:31:28.057Z,61.98
2023-04-07T04:33:56.673Z,61.96
2023-04-07T04:36:26.439Z,61.09
2023-04-07T04:38:54.055Z,61.11
2023-04-07T04:41:23.085Z,61.66
2023-04-07T04:43:50.557Z,61.36
2023-04-07T04:46:18.136Z,61.10
2023-04-07T04:48:45.631Z,62.25
2023-04-07T04:51:13.145Z,62.50
2023-04-07T04:53:40.704Z,62.52
2023-04-07T04:56:10.931Z,62.73
2023-04-07T04:58:42.101Z,62.55
2023-04-07T05:01:09.640Z,62.89
2023-04-07T05:03:40.089Z,62.37
2023-04-07T05:06:08.294Z,63.42
2023-04-07T05:08:35.838Z,63.13
2023-04-07T05:11:03.333Z,62.45
2023-04-07T05:13:31.275Z,62.82
2023-04-07T05:16:00.167Z,62.65
2023-04-07T05:18:27.758Z,62.97
2023-04-07T05:20:55.535Z,62.83
2023-04-07T05:23:23.051Z,62.88
2023-04-07T05:25:51.121Z,62.05
2023-04-07T05:28:19.265Z,62.52
2023-04-07T05:30:46.974Z,62.38
2023-04-07T05:33:16.014Z,62.55
2023-04-07T05:35:45.446Z,61.87
2023-04-07T05:38:13.063Z,61.55
2023-04-07T05:40:40.974Z,61.66
2023-04-07T05:43:08.488Z,61.39
2023-04-07T05:45:36.117Z,61.45
2023-04-07T05:48:03.734Z,61.18
2023-04-07T05:50:32.611Z,60.76
2023-04-07T05:53:00.144Z,61.21
2023-04-07T05:55:28.152Z,60.38
2023-04-07T05:57:55.689Z,60.82
2023-04-07T06:00:23.158Z,60.66
2023-04-07T06:02:50.852Z,60.04
2023-04-07T06:05:18.795Z,60.20
2023-04-07T06:07:47.665Z,59.89
2023-04-07T06:10:16.081Z,59.66
2023-04-07T06:12:43.589Z,59.21
2023-04-07T06:15:11.849Z,59.36
2023-04-07T06:17:39.394Z,59.54
2023-04-07T06:20:08.467Z,59.84
2023-04-07T06:22:36.278Z,58.37
2023-04-07T06:25:07.361Z,60.08
2023-04-07T06:27:34.856Z,58.74
2023-04-07T06:30:02.372Z,60.08
2023-04-07T06:32:29.957Z,59.15
2023-04-07T06:34:57.652Z,60.17
2023-04-07T06:37:26.127Z,60.06
2023-04-07T06:39:53.638Z,60.22
2023-04-07T06:42:22.432Z,59.56
2023-04-07T06:44:49.928Z,58.56
2023-04-07T06:47:17.445Z,59.54
2023-04-07T06:49:44.942Z,58.32
2023-04-07T06:52:12.434Z,58.20
2023-04-07T06:54:39.939Z,59.90
2023-04-07T06:57:11.876Z,60.13
2023-04-07T06:59:40.797Z,59.15
2023-04-07T07:02:08.643Z,60.11
2023-04-07T07:04:37.411Z,56.88
2023-04-07T07:07:04.903Z,56.96
2023-04-07T07:09:32.408Z,58.66
2023-04-07T07:12:03.927Z,57.68
2023-04-07T07:14:31.848Z,59.05
2023-04-07T07:17:00.630Z,58.04
2023-04-07T07:19:28.134Z,57.53
2023-04-07T07:21:56.411Z,59.29
2023-04-07T07:24:24.279Z,57.63
2023-04-07T07:26:51.770Z,55.44
2023-04-07T07:29:19.258Z,56.72
2023-04-07T07:31:46.767Z,55.76
2023-04-07T07:34:15.792Z,55.35
2023-04-07T07:36:43.288Z,55.55
2023-04-07T07:39:11.078Z,55.33
2023-04-07T07:41:38.572Z,56.04
2023-04-07T07:44:06.071Z,54.36
2023-04-07T07:46:33.998Z,54.52
2023-04-07T07:49:01.672Z,52.72
2023-04-07T07:51:30.701Z,53.64
2023-04-07T07:53:58.222Z,53.03
2023-04-07T07:56:25.729Z,56.62
2023-04-07T07:58:53.244Z,52.41
2023-04-07T08:01:21.310Z,56.49
2023-04-07T08:03:49.353Z,52.22
2023-04-07T08:06:17.861Z,53.00
2023-04-07T08:08:46.758Z,52.72
2023-04-07T08:11:14.305Z,57.12
2023-04-07T08:13:45.456Z,52.06
2023-04-07T08:16:13.317Z,53.81
2023-04-07T08:18:40.962Z,53.15
2023-04-07T08:21:08.607Z,52.63
2023-04-07T08:23:36.379Z,56.79
2023-04-07T08:26:05.332Z,50.72
2023-04-07T08:28:32.847Z,53.33
2023-04-07T08:31:00.347Z,50.73
2023-04-07T08:33:27.846Z,50.71
2023-04-07T08:35:55.343Z,51.45
2023-04-07T08:38:22.866Z,52.90
2023-04-07T08:40:54.902Z,50.46
2023-04-07T08:43:24.103Z,48.24
2023-04-07T08:45:53.534Z,52.80
2023-04-07T08:48:23.250Z,48.24
2023-04-07T08:50:53.139Z,49.67
2023-04-07T08:53:24.983Z,51.85
2023-04-07T08:55:52.578Z,46.38
2023-04-07T08:58:20.464Z,45.95
2023-04-07T09:00:50.426Z,48.61
2023-04-07T09:03:18.956Z,44.03
2023-04-07T09:05:47.106Z,49.22
2023-04-07T09:08:14.976Z,49.18
2023-04-07T09:10:42.512Z,44.77
2023-04-07T09:13:10.057Z,43.62
2023-04-07T09:15:38.779Z,45.32
2023-04-07T09:18:07.903Z,49.16
2023-04-07T09:20:57.484Z,44.51
2023-04-07T09:23:32.429Z,46.83
2023-04-07T09:26:01.360Z,44.96
2023-04-07T09:28:44.051Z,43.41
2023-04-07T09:31:11.730Z,47.90
2023-04-07T09:33:40.597Z,45.78
2023-04-07T09:36:08.183Z,48.18
2023-04-07T09:38:37.789Z,42.56
2023-04-07T09:41:09.798Z,45.18
2023-04-07T09:43:38.797Z,44.44
2023-04-07T09:46:12.036Z,46.77
2023-04-07T09:48:41.157Z,41.64
2023-04-07T09:51:10.518Z,42.66
2023-04-07T09:53:46.403Z,45.77
2023-04-07T09:56:16.240Z,40.90
2023-04-07T09:58:45.604Z,42.26
2023-04-07T10:01:14.569Z,39.84
2023-04-07T10:03:44.155Z,41.14
2023-04-07T10:06:12.946Z,40.92
2023-04-07T10:08:42.753Z,39.95
2023-04-07T10:11:11.256Z,42.21
2023-04-07T10:13:41.351Z,39.32
2023-04-07T10:16:09.512Z,39.23
2023-04-07T10:18:37.961Z,38.15
2023-04-07T10:21:09.286Z,41.01
2023-04-07T10:23:51.611Z,40.33
2023-04-07T10:30:12.767Z,37.71
2023-04-07T10:32:47.642Z,43.17
2023-04-07T10:35:15.539Z,40.07
2023-04-07T10:38:17.333Z,37.55
2023-04-07T10:40:45.643Z,45.09
2023-04-07T10:43:13.791Z,45.04
2023-04-07T10:45:56.410Z,37.31
2023-04-07T10:48:24.022Z,43.52
2023-04-07T10:51:15.320Z,42.59
2023-04-07T10:54:20.677Z,38.08
2023-04-07T10:57:11.916Z,41.00
2023-04-07T10:59:42.489Z,40.71
2023-04-07T11:02:33.661Z,39.42
2023-04-07T11:05:02.774Z,39.33
2023-04-07T11:07:55.184Z,44.43
2023-04-07T11:10:23.321Z,39.51
2023-04-07T11:13:06.173Z,45.73
2023-04-07T11:15:35.315Z,40.00
2023-04-07T11:18:17.870Z,40.93
2023-04-07T11:20:48.140Z,39.95
2023-04-07T11:23:16.487Z,43.79
2023-04-07T11:25:45.859Z,41.40
2023-04-07T11:28:15.132Z,38.57
2023-04-07T11:30:49.704Z,35.58
2023-04-07T11:33:18.645Z,36.25
2023-04-07T11:35:55.472Z,35.80
2023-04-07T11:38:24.336Z,39.18
2023-04-07T11:40:52.217Z,43.01
2023-04-07T11:43:22.888Z,37.96
2023-04-07T11:46:07.748Z,36.21
2023-04-07T11:48:37.143Z,35.58
2023-04-07T11:51:05.390Z,36.46
2023-04-07T11:53:34.282Z,36.83
2023-04-07T11:56:04.095Z,38.03
2023-04-07T11:58:33.262Z,38.33
2023-04-07T12:01:05.906Z,35.24
2023-04-07T12:03:34.132Z,33.53
2023-04-07T12:06:01.998Z,34.20
2023-04-07T12:08:39.921Z,38.52
2023-04-07T12:11:08.006Z,40.49
2023-04-07T12:13:37.301Z,34.85
2023-04-07T12:16:04.993Z,36.24
2023-04-07T12:18:32.674Z,35.67
2023-04-07T12:21:00.441Z,34.57
2023-04-07T12:23:27.944Z,34.94
2023-04-07T12:25:55.858Z,33.89
2023-04-07T12:28:23.387Z,34.39
2023-04-07T12:30:52.200Z,35.78
2023-04-07T12:33:19.685Z,39.30
2023-04-07T12:35:47.434Z,33.49
2023-04-07T12:38:15.651Z,33.84
2023-04-07T12:40:43.852Z,35.74
2023-04-07T12:43:11.378Z,35.08
2023-04-07T12:45:38.899Z,34.77
2023-04-07T12:48:07.864Z,33.71
2023-04-07T12:50:36.393Z,33.28
2023-04-07T12:53:05.363Z,39.15
2023-04-07T12:55:35.579Z,35.42
2023-04-07T12:58:03.225Z,36.89
2023-04-07T13:00:31.464Z,35.62
2023-04-07T13:02:59.141Z,35.67
2023-04-07T13:05:29.944Z,36.83
2023-04-07T13:07:57.406Z,37.37
2023-04-07T13:10:24.900Z,32.87
2023-04-07T13:12:52.405Z,36.91
2023-04-07T13:15:20.150Z,36.51
2023-04-07T13:17:47.774Z,30.57
2023-04-07T13:22:50.766Z,35.43
2023-04-07T13:25:28.295Z,31.44
2023-04-07T13:27:55.894Z,33.32
2023-04-07T13:30:23.379Z,34.03
2023-04-07T13:32:50.866Z,35.46
2023-04-07T13:35:18.827Z,34.28
2023-04-07T13:37:47.592Z,37.49
2023-04-07T13:40:15.384Z,38.24
2023-04-07T13:42:44.402Z,34.81
2023-04-07T13:45:12.054Z,40.46
2023-04-07T13:47:39.905Z,36.60
2023-04-07T13:50:08.324Z,33.29
2023-04-07T13:52:36.267Z,36.85
2023-04-07T13:55:06.068Z,34.53
2023-04-07T13:57:33.561Z,32.83
2023-04-07T14:00:01.233Z,37.44
2023-04-07T14:02:29.726Z,40.55
2023-04-07T14:04:57.802Z,36.44
2023-04-07T14:07:25.288Z,39.84
2023-04-07T14:09:54.495Z,34.09
2023-04-07T14:12:23.627Z,36.05
2023-04-07T14:14:52.376Z,39.09
2023-04-07T14:17:19.862Z,39.02
2023-04-07T14:19:48.602Z,40.73
2023-04-07T14:22:16.420Z,36.06
2023-04-07T14:24:45.141Z,36.28
2023-04-07T14:27:14.060Z,36.22
2023-04-07T14:29:42.869Z,35.53
2023-04-07T14:32:10.348Z,40.25
2023-04-07T14:34:38.327Z,32.64
2023-04-07T14:37:06.254Z,37.61
2023-04-07T14:39:34.217Z,36.29
2023-04-07T14:42:01.726Z,35.95
2023-04-07T14:44:31.187Z,35.29
2023-04-07T14:47:00.167Z,34.29
2023-04-07T14:49:28.507Z,36.98
2023-04-07T14:51:56.085Z,33.91
2023-04-07T14:54:24.453Z,36.06
2023-04-07T14:56:51.918Z,33.35
2023-04-07T14:59:19.406Z,38.99
2023-04-07T15:01:46.951Z,34.35
2023-04-07T15:04:15.896Z,35.65
2023-04-07T15:06:44.699Z,35.88
2023-04-07T15:09:13.092Z,35.18
2023-04-07T15:11:40.556Z,35.50
2023-04-07T15:14:08.056Z,34.93
2023-04-07T15:16:35.742Z,36.95
2023-04-07T15:19:03.499Z,37.67
2023-04-07T15:21:32.289Z,38.86
2023-04-07T15:23:59.800Z,37.62
2023-04-07T15:26:27.280Z,38.69
2023-04-07T15:28:54.961Z,39.39
2023-04-07T15:31:23.346Z,39.42
2023-04-07T15:33:51.502Z,40.48
2023-04-07T15:36:18.985Z,40.34
2023-04-07T15:38:47.815Z,38.62
2023-04-07T15:41:16.475Z,39.14
2023-04-07T15:43:44.012Z,38.20
2023-04-07T15:46:11.523Z,40.19
2023-04-07T15:48:39.110Z,40.47
2023-04-07T15:51:06.747Z,38.88
2023-04-07T15:53:34.457Z,38.86
2023-04-07T15:56:03.394Z,35.46
2023-04-07T15:58:32.190Z,38.08
2023-04-07T16:00:59.837Z,36.41
2023-04-07T16:03:29.016Z,40.11
2023-04-07T16:05:56.726Z,37.55
2023-04-07T16:08:24.215Z,39.53
2023-04-07T16:10:51.770Z,36.03
2023-04-07T16:13:20.692Z,35.98
2023-04-07T16:15:48.283Z,35.29
2023-04-07T16:18:15.888Z,34.22
2023-04-07T16:20:43.415Z,34.34
2023-04-07T16:23:10.984Z,33.91
2023-04-07T16:25:38.473Z,34.01
2023-04-07T16:28:06.051Z,36.21
2023-04-07T16:30:34.862Z,33.07
2023-04-07T16:33:03.220Z,32.18
2023-04-07T16:35:31.874Z,37.44
2023-04-07T16:38:03.931Z,32.84
2023-04-07T16:40:31.582Z,35.92
2023-04-07T16:42:59.065Z,35.10
2023-04-07T16:45:26.632Z,38.05
2023-04-07T16:47:55.540Z,38.02
2023-04-07T16:50:23.196Z,36.07
2023-04-07T16:52:50.682Z,35.60
2023-04-07T16:55:18.224Z,37.00
2023-04-07T16:57:45.703Z,37.86
2023-04-07T17:00:14.300Z,37.19
2023-04-07T17:02:41.885Z,36.18
2023-04-07T17:05:11.029Z,40.66
2023-04-07T17:07:38.533Z,39.54
2023-04-07T17:10:06.912Z,40.65
2023-04-07T17:12:34.397Z,42.19
2023-04-07T17:15:01.873Z,40.77
2023-04-07T17:17:29.402Z,42.77
2023-04-07T17:19:57.593Z,43.29
2023-04-07T17:22:26.532Z,44.50
2023-04-07T17:24:54.043Z,45.09
2023-04-07T17:27:21.574Z,45.36
2023-04-07T17:29:49.035Z,46.32
2023-04-07T17:32:16.517Z,45.75
2023-04-07T17:34:43.987Z,45.65
2023-04-07T17:37:11.469Z,47.03
2023-04-07T17:39:40.595Z,47.45
2023-04-07T17:42:10.834Z,48.58
2023-04-07T17:44:38.359Z,48.57
2023-04-07T17:47:05.851Z,48.41
2023-04-07T17:49:33.343Z,48.05
2023-04-07T17:52:00.882Z,44.99
2023-04-07T17:54:28.394Z,45.11
2023-04-07T17:56:57.637Z,48.35
2023-04-07T17:59:25.128Z,50.46
2023-04-07T18:01:52.732Z,51.98
2023-04-07T18:04:20.337Z,49.49
2023-04-07T18:06:47.941Z,51.31
2023-04-07T18:09:15.871Z,50.27
2023-04-07T18:11:43.387Z,52.84
2023-04-07T18:14:12.273Z,53.78
2023-04-07T18:16:40.405Z,57.80
2023-04-07T18:19:07.892Z,59.75
2023-04-07T18:21:36.327Z,59.99
2023-04-07T18:24:03.852Z,63.55
2023-04-07T18:26:31.838Z,64.00
2023-04-07T18:28:59.369Z,64.21
2023-04-07T18:31:28.221Z,64.31
2023-04-07T18:33:55.736Z,65.32
2023-04-07T18:36:27.062Z,67.86
2023-04-07T18:38:54.900Z,64.69
2023-04-07T18:41:22.488Z,68.38
2023-04-07T18:43:50.200Z,68.26
2023-04-07T18:46:18.044Z,69.00
2023-04-07T18:48:46.905Z,69.85
2023-04-07T18:51:14.804Z,70.37
2023-04-07T18:53:42.286Z,72.20
2023-04-07T18:56:09.790Z,71.66
2023-04-07T18:58:43.700Z,71.83
2023-04-07T19:01:11.597Z,69.08
2023-04-07T19:03:39.587Z,72.05
2023-04-07T19:06:08.563Z,68.82
2023-04-07T19:08:36.762Z,70.00
2023-04-07T19:11:04.612Z,71.93
2023-04-07T19:13:32.088Z,68.90
2023-04-07T19:16:00.227Z,66.75
2023-04-07T19:18:29.209Z,72.20
2023-04-07T19:20:57.029Z,70.31
2023-04-07T19:23:26.083Z,65.84
2023-04-07T19:25:53.697Z,70.01
2023-04-07T19:28:21.506Z,70.70
2023-04-07T19:30:49.025Z,70.45
2023-04-07T19:33:16.508Z,74.18
2023-04-07T19:35:44.086Z,67.08
2023-04-07T19:38:11.630Z,67.51
2023-04-07T19:40:40.480Z,72.44
2023-04-07T19:43:08.292Z,67.46
2023-04-07T19:45:35.846Z,69.80
2023-04-07T19:48:03.457Z,72.82
2023-04-07T19:50:31.063Z,71.61
2023-04-07T19:52:58.523Z,73.43
2023-04-07T19:55:26.065Z,73.52
2023-04-07T19:57:55.272Z,66.62
2023-04-07T20:00:22.941Z,71.04
2023-04-07T20:02:50.713Z,73.89
2023-04-07T20:05:18.831Z,77.05
2023-04-07T20:07:47.006Z,73.48
2023-04-07T20:10:14.559Z,77.76
2023-04-07T20:12:42.035Z,78.14
2023-04-07T20:15:11.936Z,79.39
2023-04-07T20:17:39.521Z,80.62
2023-04-07T20:20:08.180Z,78.23
2023-04-07T20:22:36.048Z,80.38
2023-04-07T20:25:04.845Z,78.74
2023-04-07T20:27:32.372Z,70.50
2023-04-07T20:29:59.947Z,72.82
2023-04-07T20:32:28.983Z,74.88
2023-04-07T20:34:56.503Z,71.65
2023-04-07T20:37:25.990Z,77.15
2023-04-07T20:39:55.488Z,79.22
2023-04-07T20:42:23.119Z,79.34
2023-04-07T20:44:50.805Z,80.56
2023-04-07T20:47:18.280Z,81.49
2023-04-07T20:49:47.148Z,82.34
2023-04-07T20:52:14.621Z,83.44
2023-04-07T20:54:44.770Z,81.79
2023-04-07T20:57:12.304Z,80.18
2023-04-07T20:59:39.782Z,82.28
2023-04-07T21:02:08.044Z,78.78
2023-04-07T21:04:36.829Z,77.54
2023-04-07T21:07:05.847Z,78.28
2023-04-07T21:09:33.339Z,80.83
2023-04-07T21:12:03.498Z,80.39
2023-04-07T21:14:31.753Z,81.70
2023-04-07T21:16:59.370Z,82.76
2023-04-07T21:19:26.843Z,81.69
2023-04-07T21:21:54.432Z,83.92
2023-04-07T21:24:23.634Z,80.38
2023-04-07T21:26:54.646Z,82.47
2023-04-07T21:29:23.293Z,82.60
2023-04-07T21:31:51.637Z,83.37
2023-04-07T21:34:19.728Z,75.38
2023-04-07T21:36:47.777Z,83.01
2023-04-07T21:39:16.255Z,83.21
2023-04-07T21:41:45.783Z,82.21
2023-04-07T21:44:14.249Z,82.85
2023-04-07T21:46:42.600Z,80.46
2023-04-07T21:49:13.507Z,82.32
2023-04-07T21:51:43.148Z,83.05
2023-04-07T21:54:11.716Z,81.48
2023-04-07T21:56:39.813Z,83.65
2023-04-07T21:59:09.521Z,85.63
2023-04-07T22:01:37.809Z,81.62
2023-04-07T22:04:06.019Z,81.33
2023-04-07T22:06:36.844Z,83.19
2023-04-07T22:09:06.923Z,84.26
2023-04-07T22:11:37.865Z,85.14
2023-04-07T22:14:07.378Z,85.57
2023-04-07T22:16:39.321Z,84.32
2023-04-07T22:19:07.751Z,86.55
2023-04-07T22:21:36.124Z,84.41
2023-04-07T22:24:06.627Z,83.33
2023-04-07T22:26:35.011Z,86.58
2023-04-07T22:29:03.143Z,87.35
2023-04-07T22:31:31.897Z,86.97
2023-04-07T22:34:02.335Z,85.82
2023-04-07T22:36:31.514Z,83.91
2023-04-07T22:38:59.666Z,79.56
2023-04-07T22:41:27.874Z,79.68
2023-04-07T22:43:55.912Z,76.95
2023-04-07T22:46:24.141Z,75.25
2023-04-07T22:48:54.537Z,82.87
2023-04-07T22:51:24.492Z,84.02
2023-04-07T22:53:55.373Z,78.46
2023-04-07T22:56:29.271Z,79.63
2023-04-07T22:59:05.018Z,80.97
2023-04-07T23:01:32.748Z,81.29
2023-04-07T23:04:00.361Z,79.82
2023-04-07T23:06:29.451Z,82.85
2023-04-07T23:08:56.996Z,86.25
2023-04-07T23:11:24.627Z,88.46
2023-04-07T23:13:52.246Z,87.02
2023-04-07T23:16:20.033Z,79.39
2023-04-07T23:18:47.718Z,80.97
2023-04-07T23:21:15.375Z,74.71
2023-04-07T23:23:44.169Z,80.66
2023-04-07T23:26:11.648Z,80.95
2023-04-07T23:28:40.117Z,82.37
2023-04-07T23:31:07.934Z,77.69
2023-04-07T23:33:36.125Z,74.91
2023-04-07T23:36:03.732Z,77.83
2023-04-07T23:38:31.337Z,78.76
2023-04-07T23:41:00.150Z,80.01
2023-04-07T23:43:27.651Z,82.91
2023-04-07T23:45:55.216Z,81.10
2023-04-07T23:48:22.797Z,86.62
2023-04-07T23:50:50.747Z,88.75
2023-04-07T23:53:18.257Z,87.89
2023-04-07T23:55:45.998Z,84.60
2023-04-07T23:58:14.820Z,80.11
